Aérodrome :
LOGIN :

S'inscrire | Disclaimer

   EN    FR    IT 

 










Légende :    VFR   VFR Marginal   IFR   IFR Intensif   IFR Très Intensif
Visi : 
Plafond : 
>= 8 km
>= 3000ft
5 à 8 km
1000 à 3000 ft
1500m à 5 km
500 à 1000 ft
800 à 1500m
200 à 500 ft
< 800m
< 200 ft
Symboles :   Orages  Brouillard  Fortes neiges  Fortes précipitations  Vent > 20 kt
SIGMETs :   Divers  Orages  Givrage  Turbulence  Onde Orograph.  Cendres Volcan.






- Altitude de l'aérodrome : 622 ft
- Code IATA : BRS


EGGD - Bristol Int.

DERNIER METAR :
  • 210250Z AUTO 36013KT 9999 BKN009 OVC045 09/07 Q1017

METARs EXPIRÉS :
  • 210220Z AUTO 01011KT 9999 OVC008 09/07 Q1017
  • 210150Z AUTO 01010KT 340V040 9999 OVC007 09/07 Q1017
  • 210120Z AUTO 02010KT 9999 OVC007 09/07 Q1016
  • 210050Z AUTO 02011KT 9999 OVC006 09/08 Q1016
  • 210020Z AUTO 02011KT 9999 BKN005 OVC009 09/08 Q1016

TAF TAF EGGD
Valide du 21 à 00h jusqu'au 22 à 00h UTC


202301Z 2100/2124 01009KT 9999 FEW015 BKN030
TEMPO 2100/2110 BKN004
PROB30
TEMPO 2100/2103 9000 -SHRA
PROB30
TEMPO 2122/2124 5000 BR
ATIS : +44 1275 473 666



MET'MAP, la Météo Aéronautique d'un coup d'oeil ! - Copyright ORBIFLY Décembre 2007 - Disclaimer

ORBIFLY MET'MAP TEAM :

Programmation & Développement : Alexandra Zaïnal
Conception & Développement : Baudouin d'Aumeries
Co-Programmation & Développement : Marc-Olivier Méhu
Soutien technique & logistique : Manuel Goepfert

Contact : metmap@orbifly.com




SOURCES & CREDITS :

   NOAA